createdAt,value
2023-04-11T00:02:17.025Z,11.40
2023-04-11T00:04:44.474Z,11.40
2023-04-11T00:07:11.762Z,11.40
2023-04-11T00:09:39.041Z,11.40
2023-04-11T00:12:06.655Z,11.40
2023-04-11T00:14:45.574Z,11.50
2023-04-11T00:17:12.813Z,11.50
2023-04-11T00:19:39.986Z,11.60
2023-04-11T00:22:09.508Z,11.70
2023-04-11T00:24:36.495Z,11.70
2023-04-11T00:27:03.617Z,11.70
2023-04-11T00:29:30.649Z,11.60
2023-04-11T00:31:58.055Z,11.70
2023-04-11T00:34:25.225Z,11.70
2023-04-11T00:37:21.664Z,11.70
2023-04-11T00:39:53.021Z,11.70
2023-04-11T00:42:23.484Z,11.70
2023-04-11T00:44:51.188Z,11.70
2023-04-11T00:47:18.897Z,11.80
2023-04-11T00:49:46.584Z,11.80
2023-04-11T00:52:16.884Z,11.80
2023-04-11T00:54:45.535Z,11.90
2023-04-11T00:57:13.181Z,11.90
2023-04-11T00:59:46.152Z,11.90
2023-04-11T01:02:17.847Z,11.90
2023-04-11T01:04:45.635Z,12.00
2023-04-11T01:07:14.776Z,12.10
2023-04-11T01:09:42.896Z,12.10
2023-04-11T01:12:11.758Z,12.10
2023-04-11T01:14:39.675Z,12.10
2023-04-11T01:17:08.017Z,12.00
2023-04-11T01:19:35.467Z,12.00
2023-04-11T01:22:04.424Z,11.90
2023-04-11T01:24:33.822Z,11.90
2023-04-11T01:27:02.279Z,11.90
2023-04-11T01:29:30.375Z,11.80
2023-04-11T01:31:57.437Z,11.80
2023-04-11T01:34:28.500Z,11.80
2023-04-11T01:36:55.934Z,11.80
2023-04-11T01:39:23.202Z,11.80
2023-04-11T01:41:50.913Z,11.80
2023-04-11T01:44:21.261Z,11.70
2023-04-11T01:46:48.552Z,11.80
2023-04-11T01:49:18.072Z,11.70
2023-04-11T01:51:48.140Z,11.60
2023-04-11T01:54:15.586Z,11.50
2023-04-11T01:56:42.758Z,11.40
2023-04-11T01:59:09.943Z,11.40
2023-04-11T02:01:37.172Z,11.40
2023-04-11T02:04:04.491Z,11.50
2023-04-11T02:06:34.595Z,11.50
2023-04-11T02:09:01.991Z,11.60
2023-04-11T02:11:31.299Z,11.50
2023-04-11T02:13:58.404Z,11.50
2023-04-11T02:16:26.060Z,11.40
2023-04-11T02:18:54.357Z,11.30
2023-04-11T02:21:22.266Z,11.30
2023-04-11T02:23:49.292Z,11.20
2023-04-11T02:26:16.390Z,11.10
2023-04-11T02:28:43.397Z,11.10
2023-04-11T02:31:10.592Z,11.10
2023-04-11T02:33:37.738Z,11.00
2023-04-11T02:36:05.629Z,10.80
2023-04-11T02:38:32.722Z,10.70
2023-04-11T02:41:00.290Z,10.60
2023-04-11T02:43:27.280Z,10.50
2023-04-11T02:46:02.063Z,10.30
2023-04-11T02:48:34.313Z,10.20
2023-04-11T02:51:01.247Z,10.10
2023-04-11T02:53:28.218Z,10.00
2023-04-11T02:55:55.389Z,10.00
2023-04-11T02:58:25.944Z,10.00
2023-04-11T03:00:56.313Z,10.00
2023-04-11T03:03:23.501Z,10.00
2023-04-11T03:05:50.664Z,9.90
2023-04-11T03:08:22.396Z,9.90
2023-04-11T03:10:52.800Z,9.90
2023-04-11T03:13:21.751Z,9.80
2023-04-11T03:15:48.776Z,9.80
2023-04-11T03:18:16.930Z,9.80
2023-04-11T03:20:47.104Z,9.80
2023-04-11T03:23:15.861Z,9.80
2023-04-11T03:25:44.726Z,9.80
2023-04-11T03:28:12.982Z,9.70
2023-04-11T03:30:42.568Z,9.70
2023-04-11T03:33:12.353Z,9.60
2023-04-11T03:35:40.215Z,9.60
2023-04-11T03:38:07.239Z,9.60
2023-04-11T03:40:34.211Z,9.60
2023-04-11T03:43:09.502Z,9.60
2023-04-11T03:45:37.379Z,9.50
2023-04-11T03:48:08.447Z,9.50
2023-04-11T03:50:47.281Z,9.40
2023-04-11T03:53:47.268Z,9.50
2023-04-11T03:56:23.073Z,9.50
2023-04-11T03:58:50.247Z,9.40
2023-04-11T04:01:20.228Z,9.40
2023-04-11T04:03:50.137Z,9.40
2023-04-11T04:06:17.408Z,9.30
2023-04-11T04:08:46.998Z,9.30
2023-04-11T04:11:14.411Z,9.20
2023-04-11T04:13:41.538Z,9.10
2023-04-11T04:16:14.673Z,9.00
2023-04-11T04:18:45.135Z,9.00
2023-04-11T04:21:12.292Z,9.00
2023-04-11T04:23:39.518Z,9.00
2023-04-11T04:26:42.105Z,9.00
2023-04-11T04:29:21.728Z,8.90
2023-04-11T04:31:53.040Z,8.90
2023-04-11T04:34:29.275Z,8.90
2023-04-11T04:36:59.721Z,8.90
2023-04-11T04:39:38.270Z,8.90
2023-04-11T04:42:07.325Z,8.80
2023-04-11T04:44:38.493Z,8.80
2023-04-11T04:47:13.361Z,8.70
2023-04-11T04:49:40.437Z,8.70
2023-04-11T04:52:07.454Z,8.70
2023-04-11T04:54:45.913Z,8.80
2023-04-11T04:57:13.062Z,8.80
2023-04-11T04:59:40.186Z,8.80
2023-04-11T05:02:11.738Z,8.60
2023-04-11T05:04:39.664Z,8.50
2023-04-11T05:07:06.761Z,8.30
2023-04-11T05:09:35.720Z,8.20
2023-04-11T05:12:16.124Z,8.10
2023-04-11T05:14:43.548Z,8.10
2023-04-11T05:17:10.761Z,8.00
2023-04-11T05:19:37.816Z,7.80
2023-04-11T05:22:05.411Z,7.60
2023-04-11T05:24:36.565Z,7.60
2023-04-11T05:27:07.185Z,7.50
2023-04-11T05:29:34.261Z,7.50
2023-04-11T05:32:06.772Z,7.50
2023-04-11T05:34:34.541Z,7.50
2023-04-11T05:37:01.845Z,7.50
2023-04-11T05:39:28.893Z,7.50
2023-04-11T05:41:57.252Z,7.50
2023-04-11T05:44:24.217Z,7.50
2023-04-11T05:46:51.204Z,7.50
2023-04-11T05:49:18.572Z,7.50
2023-04-11T05:51:45.771Z,7.50
2023-04-11T05:54:19.034Z,7.50
2023-04-11T06:09:20.706Z,7.20
2023-04-11T06:29:02.572Z,7.40
2023-04-11T06:31:54.856Z,7.60
2023-04-11T06:34:22.031Z,7.80
2023-04-11T06:36:49.983Z,7.90
2023-04-11T06:39:17.226Z,8.00
2023-04-11T06:41:44.453Z,8.00
2023-04-11T06:44:12.817Z,8.10
2023-04-11T06:46:39.910Z,8.10
2023-04-11T06:49:09.723Z,8.10
2023-04-11T06:51:36.827Z,8.10
2023-04-11T06:54:04.380Z,8.20
2023-04-11T06:56:31.343Z,8.20
2023-04-11T06:58:58.594Z,8.10
2023-04-11T07:01:26.222Z,8.10
2023-04-11T07:03:53.711Z,8.10
2023-04-11T07:06:20.883Z,8.10
2023-04-11T07:08:47.916Z,8.20
2023-04-11T07:11:14.934Z,8.20
2023-04-11T07:13:41.999Z,8.20
2023-04-11T07:16:09.522Z,8.10
2023-04-11T07:18:36.566Z,8.00
2023-04-11T07:21:03.650Z,7.90
2023-04-11T07:23:30.708Z,7.80
2023-04-11T07:25:57.851Z,7.70
2023-04-11T07:28:25.163Z,7.70
2023-04-11T07:30:52.523Z,7.50
2023-04-11T07:33:19.550Z,7.40
2023-04-11T07:35:46.532Z,7.30
2023-04-11T07:38:14.169Z,7.30
2023-04-11T07:40:41.133Z,7.30
2023-04-11T07:43:08.131Z,7.30
2023-04-11T07:45:36.536Z,7.20
2023-04-11T07:48:03.746Z,7.10
2023-04-11T07:50:30.785Z,7.10
2023-04-11T07:52:57.860Z,7.10
2023-04-11T07:55:24.839Z,7.20
2023-04-11T07:57:51.892Z,7.20
2023-04-11T08:00:20.895Z,7.40
2023-04-11T08:02:48.155Z,7.40
2023-04-11T08:05:15.623Z,7.50
2023-04-11T08:07:42.921Z,7.60
2023-04-11T08:10:10.327Z,7.70
2023-04-11T08:12:37.570Z,7.70
2023-04-11T08:15:05.065Z,7.80
2023-04-11T08:17:37.972Z,7.90
2023-04-11T08:20:09.136Z,8.10
2023-04-11T08:22:36.527Z,8.30
2023-04-11T08:25:03.874Z,8.40
2023-04-11T08:27:30.916Z,8.70
2023-04-11T08:29:59.195Z,8.80
2023-04-11T08:32:26.501Z,8.80
2023-04-11T08:34:53.530Z,8.70
2023-04-11T08:37:20.607Z,8.80
2023-04-11T08:39:47.632Z,8.90
2023-04-11T08:42:30.601Z,9.10
2023-04-11T08:45:03.123Z,9.20
2023-04-11T08:47:30.409Z,9.20
2023-04-11T08:49:57.453Z,9.30
2023-04-11T08:52:25.646Z,9.30
2023-04-11T08:54:55.171Z,9.40
2023-04-11T08:57:27.722Z,9.50
2023-04-11T09:02:23.700Z,9.70
2023-04-11T09:04:51.691Z,9.70
2023-04-11T09:07:19.315Z,9.80
2023-04-11T09:09:46.565Z,9.80
2023-04-11T09:12:13.818Z,9.80
2023-04-11T09:14:41.212Z,9.90
2023-04-11T09:17:17.002Z,10.00
2023-04-11T09:19:45.127Z,9.90
2023-04-11T09:22:15.660Z,9.90
2023-04-11T09:24:43.053Z,9.90
2023-04-11T09:27:13.845Z,10.00
2023-04-11T09:29:48.316Z,10.10
2023-04-11T09:32:33.335Z,10.00
2023-04-11T09:35:28.504Z,10.00
2023-04-11T09:37:57.647Z,10.30
2023-04-11T09:40:31.819Z,10.50
2023-04-11T09:43:01.650Z,10.70
2023-04-11T09:45:32.219Z,11.00
2023-04-11T09:48:03.827Z,11.20
2023-04-11T09:50:31.912Z,11.50
2023-04-11T09:52:59.431Z,11.70
2023-04-11T09:55:27.052Z,11.80
2023-04-11T09:57:55.129Z,11.90
2023-04-11T10:00:32.252Z,12.00
2023-04-11T10:02:59.461Z,12.20
2023-04-11T10:05:28.848Z,12.10
2023-04-11T10:08:09.002Z,12.20
2023-04-11T10:10:36.582Z,12.20
2023-04-11T10:13:24.037Z,12.10
2023-04-11T10:16:10.174Z,12.00
2023-04-11T10:18:38.669Z,12.10
2023-04-11T10:21:35.113Z,12.20
2023-04-11T10:24:26.299Z,12.20
2023-04-11T10:27:00.745Z,11.90
2023-04-11T10:29:33.871Z,11.50
2023-04-11T10:32:11.199Z,11.20
2023-04-11T10:34:50.839Z,11.00
2023-04-11T10:37:19.300Z,10.70
2023-04-11T10:39:55.376Z,10.30
2023-04-11T10:42:28.558Z,10.00
2023-04-11T10:45:27.438Z,9.60
2023-04-11T10:47:57.564Z,9.40
2023-04-11T10:50:27.711Z,9.50
2023-04-11T10:52:59.315Z,9.90
2023-04-11T10:55:28.076Z,10.20
2023-04-11T10:58:10.152Z,10.50
2023-04-11T11:00:55.683Z,10.70
2023-04-11T11:03:31.740Z,10.80
2023-04-11T11:06:07.361Z,11.00
2023-04-11T11:08:46.932Z,11.10
2023-04-11T11:11:16.094Z,11.50
2023-04-11T11:13:52.710Z,11.80
2023-04-11T11:16:26.783Z,12.00
2023-04-11T11:18:55.703Z,12.20
2023-04-11T11:21:27.775Z,12.30
2023-04-11T11:24:00.174Z,12.20
2023-04-11T11:26:37.298Z,12.20
2023-04-11T11:29:05.878Z,12.40
2023-04-11T11:31:39.342Z,12.50
2023-04-11T11:34:22.255Z,12.70
2023-04-11T11:36:51.260Z,12.60
2023-04-11T11:39:20.409Z,12.60
2023-04-11T11:41:48.709Z,12.60
2023-04-11T11:44:24.046Z,12.50
2023-04-11T11:47:12.732Z,12.20
2023-04-11T11:49:54.272Z,12.30
2023-04-11T11:52:37.774Z,12.30
2023-04-11T11:55:11.416Z,12.30
2023-04-11T11:57:45.520Z,12.40
2023-04-11T12:00:14.017Z,12.60
2023-04-11T12:02:43.179Z,12.80
2023-04-11T12:05:13.780Z,13.10
2023-04-11T12:07:41.025Z,13.30
2023-04-11T12:10:13.526Z,13.40
2023-04-11T12:12:53.326Z,13.70
2023-04-11T12:15:26.613Z,13.80
2023-04-11T12:17:55.119Z,13.60
2023-04-11T12:20:26.904Z,13.50
2023-04-11T12:22:55.306Z,13.40
2023-04-11T12:25:23.094Z,13.40
2023-04-11T12:27:50.364Z,13.40
2023-04-11T12:30:17.556Z,13.30
2023-04-11T12:32:45.385Z,13.40
2023-04-11T12:35:13.070Z,13.50
2023-04-11T12:37:40.540Z,13.70
2023-04-11T12:40:12.619Z,13.80
2023-04-11T12:42:49.084Z,13.90
2023-04-11T12:45:22.971Z,14.00
2023-04-11T12:47:50.150Z,13.90
2023-04-11T12:50:17.224Z,13.70
2023-04-11T12:52:44.268Z,13.40
2023-04-11T12:55:13.861Z,13.00
2023-04-11T12:57:41.675Z,12.80
2023-04-11T13:00:11.455Z,12.50
2023-04-11T13:02:43.945Z,12.40
2023-04-11T13:05:15.365Z,12.30
2023-04-11T13:07:44.833Z,12.20
2023-04-11T13:10:14.014Z,12.10
2023-04-11T13:12:44.537Z,12.20
2023-04-11T13:15:14.105Z,12.10
2023-04-11T13:17:41.144Z,11.80
2023-04-11T13:20:12.949Z,11.40
2023-04-11T13:22:41.966Z,11.30
2023-04-11T13:25:10.352Z,11.20
2023-04-11T13:27:39.467Z,11.40
2023-04-11T13:30:07.822Z,11.70
2023-04-11T13:32:34.851Z,12.00
2023-04-11T13:35:02.254Z,12.30
2023-04-11T13:37:29.383Z,12.70
2023-04-11T13:39:56.431Z,12.90
2023-04-11T13:42:23.416Z,13.20
2023-04-11T13:44:50.371Z,13.50
2023-04-11T13:47:17.322Z,13.60
2023-04-11T13:49:44.812Z,13.30
2023-04-11T13:52:11.767Z,13.20
2023-04-11T13:54:39.161Z,13.10
2023-04-11T13:57:09.412Z,13.10
2023-04-11T13:59:36.687Z,12.90
2023-04-11T14:02:03.865Z,12.80
2023-04-11T14:04:31.080Z,12.90
2023-04-11T14:06:58.187Z,13.00
2023-04-11T14:09:25.254Z,13.20
2023-04-11T14:11:52.198Z,13.30
2023-04-11T14:14:19.209Z,13.40
2023-04-11T14:16:46.219Z,13.50
2023-04-11T14:19:13.288Z,13.70
2023-04-11T14:21:40.339Z,14.00
2023-04-11T14:24:07.560Z,14.20
2023-04-11T14:26:34.597Z,14.50
2023-04-11T14:29:02.900Z,14.70
2023-04-11T14:31:30.418Z,14.70
2023-04-11T14:33:57.812Z,14.70
2023-04-11T14:36:24.983Z,14.70
2023-04-11T14:38:52.008Z,14.60
2023-04-11T14:41:19.465Z,14.70
2023-04-11T14:43:46.560Z,14.80
2023-04-11T14:46:14.741Z,14.80
2023-04-11T14:48:41.795Z,14.60
2023-04-11T14:51:08.829Z,14.60
2023-04-11T14:53:35.982Z,14.60
2023-04-11T14:56:06.560Z,14.40
2023-04-11T14:58:34.225Z,14.40
2023-04-11T15:01:01.423Z,14.40
2023-04-11T15:03:28.712Z,14.30
2023-04-11T15:05:55.942Z,14.20
2023-04-11T15:08:22.987Z,14.00
2023-04-11T15:10:54.068Z,14.00
2023-04-11T15:13:26.998Z,14.00
2023-04-11T15:15:54.448Z,14.00
2023-04-11T15:18:26.979Z,14.10
2023-04-11T15:20:55.426Z,14.20
2023-04-11T15:23:22.873Z,14.20
2023-04-11T15:25:54.345Z,14.20
2023-04-11T15:28:22.147Z,14.20
2023-04-11T15:30:51.029Z,14.20
2023-04-11T15:33:19.121Z,14.10
2023-04-11T15:35:46.448Z,14.10
2023-04-11T15:38:14.377Z,14.10
2023-04-11T15:40:41.375Z,14.10
2023-04-11T15:43:11.225Z,14.00
2023-04-11T15:45:39.596Z,13.80
2023-04-11T15:48:06.942Z,13.60
2023-04-11T15:50:34.107Z,13.60
2023-04-11T15:53:01.157Z,13.40
2023-04-11T15:55:28.780Z,13.30
2023-04-11T15:57:56.648Z,13.20
2023-04-11T16:00:23.752Z,13.20
2023-04-11T16:02:51.357Z,13.20
2023-04-11T16:05:20.994Z,13.20
2023-04-11T16:07:48.208Z,13.10
2023-04-11T16:10:15.520Z,13.00
2023-04-11T16:12:42.620Z,12.90
2023-04-11T16:15:09.829Z,12.80
2023-04-11T16:17:36.865Z,12.90
2023-04-11T16:20:08.825Z,12.80
2023-04-11T16:22:37.630Z,12.60
2023-04-11T16:25:06.072Z,12.30
2023-04-11T16:27:33.255Z,12.30
2023-04-11T16:30:01.968Z,12.20
2023-04-11T16:32:29.091Z,12.10
2023-04-11T16:34:57.753Z,12.00
2023-04-11T16:37:25.028Z,12.00
2023-04-11T16:39:52.222Z,11.90
2023-04-11T16:42:19.586Z,11.80
2023-04-11T16:44:46.645Z,11.80
2023-04-11T16:47:13.657Z,11.70
2023-04-11T16:49:40.870Z,11.70
2023-04-11T16:52:07.819Z,11.80
2023-04-11T16:54:34.821Z,11.80
2023-04-11T16:57:01.818Z,11.80
2023-04-11T16:59:28.854Z,11.70
2023-04-11T17:01:56.041Z,11.70
2023-04-11T17:04:23.234Z,11.70
2023-04-11T17:06:50.425Z,11.60
2023-04-11T17:09:17.604Z,11.60
2023-04-11T17:11:44.628Z,11.60
2023-04-11T17:14:11.686Z,11.50
2023-04-11T17:16:38.783Z,11.50
2023-04-11T17:19:06.297Z,11.40
2023-04-11T17:21:33.260Z,11.30
2023-04-11T17:24:00.587Z,11.30
2023-04-11T17:26:27.872Z,11.20
2023-04-11T17:28:55.166Z,11.00
2023-04-11T17:31:22.219Z,10.90
2023-04-11T17:33:49.352Z,10.80
2023-04-11T17:36:16.368Z,10.80
2023-04-11T17:38:43.628Z,10.90
2023-04-11T17:41:15.128Z,10.90
2023-04-11T17:43:43.706Z,10.90
2023-04-11T17:46:10.798Z,10.90
2023-04-11T17:48:37.888Z,10.80
2023-04-11T17:51:05.700Z,10.80
2023-04-11T17:53:33.413Z,10.70
2023-04-11T17:56:05.914Z,10.70
2023-04-11T17:58:33.542Z,10.60
2023-04-11T18:01:00.581Z,10.60
2023-04-11T18:03:28.340Z,10.50
2023-04-11T18:05:56.380Z,10.50
2023-04-11T18:08:36.111Z,10.40
2023-04-11T18:11:11.034Z,10.30
2023-04-11T18:13:38.050Z,10.20
2023-04-11T18:16:05.228Z,10.10
2023-04-11T18:18:32.245Z,10.00
2023-04-11T18:21:06.643Z,9.90
2023-04-11T18:23:34.574Z,9.90
2023-04-11T18:26:01.585Z,9.90
2023-04-11T18:28:28.794Z,9.80
2023-04-11T18:30:55.953Z,9.80
2023-04-11T18:33:23.219Z,9.70
2023-04-11T18:35:50.394Z,9.60
2023-04-11T18:38:17.797Z,9.60
2023-04-11T18:40:44.907Z,9.50
2023-04-11T18:43:12.480Z,9.50
2023-04-11T18:45:40.156Z,9.40
2023-04-11T18:48:08.405Z,9.40
2023-04-11T18:50:39.041Z,9.30
2023-04-11T18:53:09.976Z,9.30
2023-04-11T18:55:40.343Z,9.30
2023-04-11T18:58:09.090Z,9.20
2023-04-11T19:00:39.155Z,9.10
2023-04-11T19:03:15.024Z,9.10
2023-04-11T19:05:44.061Z,9.00
2023-04-11T19:08:11.253Z,8.90
2023-04-11T19:10:38.359Z,8.80
2023-04-11T19:13:06.349Z,8.80
2023-04-11T19:15:33.474Z,8.70
2023-04-11T19:18:00.863Z,8.70
2023-04-11T19:20:28.376Z,8.60
2023-04-11T19:22:55.410Z,8.50
2023-04-11T19:25:22.490Z,8.40
2023-04-11T19:27:51.171Z,8.40
2023-04-11T19:30:18.194Z,8.30
2023-04-11T19:32:47.599Z,8.30
2023-04-11T19:35:15.192Z,8.40
2023-04-11T19:37:42.808Z,8.30
2023-04-11T19:40:16.731Z,8.30
2023-04-11T19:42:44.899Z,8.30
2023-04-11T19:45:12.460Z,8.20
2023-04-11T19:47:40.992Z,8.20
2023-04-11T19:50:15.375Z,8.10
2023-04-11T19:52:43.741Z,8.10
2023-04-11T19:55:11.815Z,8.10
2023-04-11T19:57:39.140Z,8.00
2023-04-11T20:00:15.192Z,8.00
2023-04-11T20:02:47.881Z,8.00
2023-04-11T20:05:22.182Z,8.00
2023-04-11T20:07:49.593Z,8.00
2023-04-11T20:10:27.524Z,7.90
2023-04-11T20:12:58.361Z,7.90
2023-04-11T20:15:25.711Z,7.90
2023-04-11T20:17:52.839Z,7.90
2023-04-11T20:20:20.381Z,7.80
2023-04-11T20:22:50.586Z,7.80
2023-04-11T20:25:17.615Z,7.80
2023-04-11T20:27:44.770Z,7.80
2023-04-11T20:30:13.173Z,7.80
2023-04-11T20:32:41.435Z,7.80
2023-04-11T20:35:09.982Z,7.70
2023-04-11T20:37:37.375Z,7.70
2023-04-11T20:40:09.927Z,7.70
2023-04-11T20:42:45.874Z,7.70
2023-04-11T20:45:18.283Z,7.60
2023-04-11T20:47:46.800Z,7.60
2023-04-11T20:50:15.989Z,7.60
2023-04-11T20:52:51.041Z,7.70
2023-04-11T20:55:28.835Z,7.70
2023-04-11T20:58:10.333Z,7.60
2023-04-11T21:00:39.800Z,7.70
2023-04-11T21:03:07.993Z,7.70
2023-04-11T21:05:35.907Z,7.60
2023-04-11T21:08:03.998Z,7.60
2023-04-11T21:10:31.233Z,7.60
2023-04-11T21:13:27.383Z,7.50
2023-04-11T21:15:54.828Z,7.50
2023-04-11T21:18:22.383Z,7.50
2023-04-11T21:20:49.755Z,7.50
2023-04-11T21:23:17.216Z,7.60
2023-04-11T21:25:44.494Z,7.60
2023-04-11T21:28:12.058Z,7.50
2023-04-11T21:30:39.716Z,7.50
2023-04-11T21:33:06.794Z,7.50
2023-04-11T21:35:34.021Z,7.50
2023-04-11T21:38:01.058Z,7.60
2023-04-11T21:40:28.073Z,7.50
2023-04-11T21:42:55.674Z,7.50
2023-04-11T21:45:23.386Z,7.50
2023-04-11T21:47:51.431Z,7.50
2023-04-11T21:50:18.827Z,7.50
2023-04-11T21:52:46.500Z,7.50
2023-04-11T21:55:15.155Z,7.50
2023-04-11T21:57:42.229Z,7.50
2023-04-11T22:00:13.560Z,7.50
2023-04-11T22:02:41.417Z,7.50
2023-04-11T22:05:09.609Z,7.50
2023-04-11T22:07:48.728Z,7.50
2023-04-11T22:10:23.990Z,7.50
2023-04-11T22:12:54.430Z,7.40
2023-04-11T22:15:21.684Z,7.30
2023-04-11T22:17:51.102Z,7.20
2023-04-11T22:20:18.532Z,7.20
2023-04-11T22:22:45.534Z,7.10
2023-04-11T22:25:12.604Z,7.00
2023-04-11T22:27:39.675Z,6.90
2023-04-11T22:30:07.792Z,6.90
2023-04-11T22:32:34.902Z,7.00
2023-04-11T22:35:01.949Z,6.90
2023-04-11T22:37:29.000Z,6.90
2023-04-11T22:39:56.359Z,6.90
2023-04-11T22:42:23.324Z,6.90
2023-04-11T22:44:50.462Z,6.90
2023-04-11T22:47:21.895Z,6.90
2023-04-11T22:49:49.005Z,7.00
2023-04-11T22:52:19.065Z,7.00
2023-04-11T22:54:47.173Z,7.10
2023-04-11T22:57:21.745Z,7.20
2023-04-11T22:59:51.892Z,7.30
2023-04-11T23:02:24.969Z,7.40
2023-04-11T23:05:03.661Z,7.50
2023-04-11T23:07:37.154Z,7.60
2023-04-11T23:10:18.530Z,7.60
2023-04-11T23:12:51.591Z,7.70
2023-04-11T23:15:25.138Z,7.70
2023-04-11T23:17:55.646Z,7.70
2023-04-11T23:20:24.129Z,7.70
2023-04-11T23:22:57.802Z,7.70
2023-04-11T23:25:36.514Z,7.60
2023-04-11T23:28:10.046Z,7.60
2023-04-11T23:30:44.585Z,7.60
2023-04-11T23:33:24.322Z,7.50
2023-04-11T23:35:59.988Z,7.50
2023-04-11T23:38:39.944Z,7.50
2023-04-11T23:41:09.693Z,7.50
2023-04-11T23:43:39.060Z,7.50
2023-04-11T23:46:10.470Z,7.50
2023-04-11T23:48:39.161Z,7.40
2023-04-11T23:51:11.434Z,7.50
2023-04-11T23:53:40.575Z,7.50
2023-04-11T23:56:12.118Z,7.50
2023-04-11T23:58:44.645Z,7.50
